Portada
METAR-TAF:

METAR-TAF

Aeropuertos :

Praga, República Checa

latitud: 50-12-59N, longitud: 014-23-42E, altitud: 280 m

Observación

El informe se hizo hace 1 hora y 10 minutos, a las 13:00 UTC
Viento 6 kt del oeste, variando entre suroeste y oeste-noroeste
Temperatura 2°C
Humedad 69%
Presión 1031 hPa
Visibilidad 10 km o más
Cielo nuboso a una altura de 1900 ft

METAR: LKVO 221300Z 27006KT 230V300 9999 BKN019 02/M03 Q1031

Hora: 15:10 (14:10 UTC)


TAF: falta

Observaciones y pronósticos meteorológicos de más de 4000 aeropuertos (mensajes METAR y TAF).

Los puntos amarillos y rojos representan las estaciones disponibles.

Ponga el ratón en el punto deseado para ver el nombre de la estación.

Haga clic para ver las observaciones y los pronósticos meteorológicos.

Para cambiar el mapa : haga clic en los botones verdes con una cruz de color negro para hacer un zoom, en el botón verde con un guión para alejar o en las flechas verdes para mapas adyacentes.


METAR-TAF: